createdAt,value
2022-10-31T00:01:37.033Z,11.08
2022-10-31T00:04:09.750Z,11.02
2022-10-31T00:06:38.847Z,11.02
2022-10-31T00:09:11.199Z,11.02
2022-10-31T00:11:44.475Z,11.00
2022-10-31T00:14:12.214Z,10.98
2022-10-31T00:16:42.697Z,10.98
2022-10-31T00:19:10.587Z,10.96
2022-10-31T00:21:38.830Z,10.95
2022-10-31T00:24:06.769Z,10.98
2022-10-31T00:26:34.920Z,10.93
2022-10-31T00:29:06.705Z,10.95
2022-10-31T00:31:35.877Z,10.92
2022-10-31T00:34:05.371Z,10.95
2022-10-31T00:36:34.364Z,10.92
2022-10-31T00:39:02.499Z,10.88
2022-10-31T00:41:30.875Z,10.90
2022-10-31T00:43:58.887Z,10.89
2022-10-31T00:46:26.986Z,10.92
2022-10-31T00:48:54.733Z,10.88
2022-10-31T00:51:22.614Z,10.86
2022-10-31T00:53:50.195Z,10.86
2022-10-31T00:56:19.098Z,10.86
2022-10-31T00:58:46.745Z,10.82
2022-10-31T01:01:14.614Z,10.81
2022-10-31T01:03:42.443Z,10.75
2022-10-31T01:06:14.500Z,10.77
2022-10-31T01:08:48.053Z,10.76
2022-10-31T01:11:22.138Z,10.79
2022-10-31T01:13:53.021Z,10.76
2022-10-31T01:16:23.411Z,10.74
2022-10-31T01:18:52.141Z,10.72
2022-10-31T01:21:23.219Z,10.69
2022-10-31T01:23:54.775Z,10.70
2022-10-31T01:26:26.526Z,10.64
2022-10-31T01:28:58.041Z,10.60
2022-10-31T01:31:32.216Z,10.62
2022-10-31T01:34:00.568Z,10.60
2022-10-31T01:36:31.422Z,10.62
2022-10-31T01:39:03.878Z,10.58
2022-10-31T01:41:35.056Z,10.52
2022-10-31T01:44:17.348Z,10.48
2022-10-31T01:46:47.397Z,10.46
2022-10-31T01:49:25.481Z,10.44
2022-10-31T01:51:57.711Z,10.39
2022-10-31T01:54:32.003Z,10.37
2022-10-31T01:57:03.716Z,10.30
2022-10-31T01:59:35.210Z,10.29
2022-10-31T02:02:03.098Z,10.29
2022-10-31T02:04:31.107Z,10.22
2022-10-31T02:07:11.611Z,10.26
2022-10-31T02:09:39.310Z,10.25
2022-10-31T02:12:08.270Z,10.22
2022-10-31T02:14:37.454Z,10.23
2022-10-31T02:17:04.998Z,10.20
2022-10-31T02:19:51.661Z,10.26
2022-10-31T02:22:38.450Z,10.23
2022-10-31T02:25:28.641Z,10.19
2022-10-31T02:28:06.158Z,10.19
2022-10-31T02:31:04.098Z,10.24
2022-10-31T02:33:41.590Z,10.21
2022-10-31T02:36:16.461Z,10.15
2022-10-31T02:39:02.156Z,10.09
2022-10-31T02:41:45.016Z,10.10
2022-10-31T02:44:29.839Z,10.05
2022-10-31T02:47:06.515Z,10.00
2022-10-31T02:49:41.118Z,10.00
2022-10-31T02:52:22.795Z,9.99
2022-10-31T02:54:50.847Z,9.95
2022-10-31T02:57:30.433Z,9.96
2022-10-31T03:00:09.539Z,9.96
2022-10-31T03:02:55.873Z,9.92
2022-10-31T03:05:29.581Z,9.92
2022-10-31T03:08:12.011Z,9.93
2022-10-31T03:10:39.548Z,9.91
2022-10-31T03:13:35.458Z,9.90
2022-10-31T03:16:11.309Z,9.87
2022-10-31T03:18:45.240Z,9.84
2022-10-31T03:21:20.883Z,9.86
2022-10-31T03:23:51.621Z,9.83
2022-10-31T03:26:23.353Z,9.83
2022-10-31T03:28:59.827Z,9.79
2022-10-31T03:31:34.132Z,9.76
2022-10-31T03:34:04.049Z,9.77
2022-10-31T03:36:35.779Z,9.79
2022-10-31T03:39:07.429Z,9.78
2022-10-31T03:41:40.265Z,9.82
2022-10-31T03:44:14.971Z,9.82
2022-10-31T03:46:44.769Z,9.77
2022-10-31T03:49:13.529Z,9.75
2022-10-31T03:51:56.157Z,9.72
2022-10-31T03:55:16.807Z,9.70
2022-10-31T03:58:04.019Z,9.65
2022-10-31T04:00:35.866Z,9.69
2022-10-31T04:03:12.808Z,9.69
2022-10-31T04:05:46.986Z,9.65
2022-10-31T04:08:20.953Z,9.70
2022-10-31T04:10:51.105Z,9.66
2022-10-31T04:13:30.019Z,9.65
2022-10-31T04:16:06.377Z,9.65
2022-10-31T04:18:34.480Z,9.63
2022-10-31T04:21:08.472Z,9.70
2022-10-31T04:23:38.265Z,9.72
2022-10-31T04:26:16.262Z,9.69
2022-10-31T04:28:45.939Z,9.65
2022-10-31T04:31:14.564Z,9.65
2022-10-31T04:33:44.461Z,9.66
2022-10-31T04:36:13.320Z,9.66
2022-10-31T04:38:40.958Z,9.68
2022-10-31T04:41:17.993Z,9.73
2022-10-31T04:43:55.397Z,9.68
2022-10-31T04:46:23.359Z,9.72
2022-10-31T04:48:50.984Z,9.72
2022-10-31T04:51:18.920Z,9.73
2022-10-31T04:53:46.505Z,9.79
2022-10-31T04:56:43.253Z,9.87
2022-10-31T04:59:16.300Z,9.90
2022-10-31T05:01:55.455Z,9.90
2022-10-31T05:04:38.944Z,9.90
2022-10-31T05:07:06.580Z,9.83
2022-10-31T05:09:34.334Z,9.88
2022-10-31T05:12:03.234Z,9.93
2022-10-31T05:14:49.302Z,9.89
2022-10-31T05:17:36.546Z,9.87
2022-10-31T05:20:26.274Z,9.89
2022-10-31T05:23:12.698Z,9.95
2022-10-31T05:25:43.830Z,9.95
2022-10-31T05:28:11.810Z,9.98
2022-10-31T05:30:39.368Z,9.94
2022-10-31T05:33:11.252Z,9.98
2022-10-31T05:35:59.404Z,9.85
2022-10-31T05:38:53.019Z,9.79
2022-10-31T05:41:31.779Z,9.76
2022-10-31T05:44:06.833Z,9.73
2022-10-31T05:46:47.600Z,9.65
2022-10-31T05:49:50.779Z,9.55
2022-10-31T05:52:38.807Z,9.56
2022-10-31T05:55:16.566Z,9.55
2022-10-31T05:57:59.054Z,9.53
2022-10-31T06:00:27.750Z,9.57
2022-10-31T06:05:50.619Z,9.65
2022-10-31T06:08:24.080Z,9.60
2022-10-31T06:10:54.126Z,9.63
2022-10-31T06:13:32.890Z,9.66
2022-10-31T06:16:06.556Z,9.60
2022-10-31T06:18:38.237Z,9.71
2022-10-31T06:21:12.537Z,9.71
2022-10-31T06:23:43.414Z,9.73
2022-10-31T06:26:29.705Z,9.72
2022-10-31T06:29:01.416Z,9.76
2022-10-31T06:31:53.078Z,9.75
2022-10-31T06:34:21.086Z,9.68
2022-10-31T06:36:48.866Z,9.68
2022-10-31T06:39:17.911Z,9.76
2022-10-31T06:41:49.177Z,9.76
2022-10-31T06:44:19.993Z,9.66
2022-10-31T06:46:56.685Z,9.66
2022-10-31T06:49:50.586Z,9.66
2022-10-31T06:52:21.819Z,9.59
2022-10-31T06:54:50.302Z,9.65
2022-10-31T06:57:18.180Z,9.65
2022-10-31T06:59:46.294Z,9.63
2022-10-31T07:02:20.657Z,9.66
2022-10-31T07:04:50.098Z,9.67
2022-10-31T07:07:22.253Z,9.69
2022-10-31T07:09:52.015Z,9.74
2022-10-31T07:12:24.844Z,9.77
2022-10-31T07:14:59.018Z,9.68
2022-10-31T07:17:29.822Z,9.62
2022-10-31T07:20:00.705Z,9.61
2022-10-31T07:22:36.337Z,9.51
2022-10-31T07:25:06.453Z,9.44
2022-10-31T07:27:42.923Z,9.46
2022-10-31T07:30:14.213Z,9.43
2022-10-31T07:32:44.016Z,9.46
2022-10-31T07:35:17.353Z,9.50
2022-10-31T07:37:50.903Z,9.48
2022-10-31T07:40:19.305Z,9.44
2022-10-31T07:42:50.370Z,9.42
2022-10-31T07:45:54.969Z,9.48
2022-10-31T07:48:41.635Z,9.42
2022-10-31T07:51:28.199Z,9.36
2022-10-31T07:54:10.829Z,9.36
2022-10-31T07:56:40.337Z,9.44
2022-10-31T07:59:08.155Z,9.43
2022-10-31T08:01:35.985Z,9.47
2022-10-31T08:04:23.714Z,9.64
2022-10-31T08:07:10.181Z,9.66
2022-10-31T08:09:40.315Z,9.70
2022-10-31T08:12:19.613Z,9.72
2022-10-31T08:14:47.654Z,9.59
2022-10-31T08:17:18.150Z,9.48
2022-10-31T08:19:56.890Z,9.50
2022-10-31T08:22:42.908Z,9.54
2022-10-31T08:25:13.225Z,9.45
2022-10-31T08:27:41.942Z,9.57
2022-10-31T08:30:17.634Z,9.57
2022-10-31T08:33:04.032Z,9.52
2022-10-31T08:36:04.281Z,9.71
2022-10-31T08:38:50.429Z,10.01
2022-10-31T08:41:20.922Z,9.97
2022-10-31T08:43:49.095Z,9.87
2022-10-31T08:46:19.425Z,9.49
2022-10-31T08:48:51.075Z,9.38
2022-10-31T08:51:20.350Z,9.50
2022-10-31T08:53:51.699Z,9.39
2022-10-31T08:56:35.795Z,9.47
2022-10-31T08:59:07.976Z,9.45
2022-10-31T09:01:55.632Z,9.34
2022-10-31T09:04:23.747Z,9.25
2022-10-31T09:07:19.543Z,9.28
2022-10-31T09:09:40.096Z,9.45
2022-10-31T09:12:07.645Z,9.64
2022-10-31T09:14:51.799Z,9.48
2022-10-31T09:17:25.223Z,9.32
2022-10-31T09:20:13.036Z,9.49
2022-10-31T09:22:40.729Z,9.43
2022-10-31T09:25:09.286Z,9.46
2022-10-31T09:27:39.497Z,9.42
2022-10-31T09:30:10.682Z,9.36
2022-10-31T09:32:39.839Z,9.40
2022-10-31T09:35:09.620Z,9.35
2022-10-31T09:37:38.283Z,9.25
2022-10-31T09:40:09.674Z,9.26
2022-10-31T09:42:58.783Z,9.55
2022-10-31T09:45:38.129Z,9.76
2022-10-31T09:48:35.029Z,9.77
2022-10-31T09:51:34.031Z,9.70
2022-10-31T09:54:29.510Z,9.16
2022-10-31T09:57:01.258Z,8.96
2022-10-31T09:59:36.041Z,8.95
2022-10-31T10:02:14.150Z,9.05
2022-10-31T10:04:59.488Z,9.09
2022-10-31T10:07:51.029Z,9.50
2022-10-31T10:10:56.226Z,9.28
2022-10-31T10:13:58.807Z,8.82
2022-10-31T10:16:50.785Z,8.68
2022-10-31T10:19:24.497Z,8.74
2022-10-31T10:21:57.793Z,8.81
2022-10-31T10:24:46.149Z,8.82
2022-10-31T10:27:22.295Z,8.98
2022-10-31T10:30:01.832Z,9.17
2022-10-31T10:32:32.566Z,9.10
2022-10-31T10:35:32.563Z,8.69
2022-10-31T10:38:24.097Z,8.51
2022-10-31T10:40:54.155Z,8.57
2022-10-31T10:43:31.835Z,8.46
2022-10-31T10:46:38.494Z,8.69
2022-10-31T10:49:24.144Z,8.83
2022-10-31T10:52:19.817Z,8.66
2022-10-31T10:54:57.820Z,8.81
2022-10-31T10:57:41.576Z,8.79
2022-10-31T11:00:22.185Z,9.03
2022-10-31T11:02:50.521Z,9.04
2022-10-31T11:05:41.875Z,8.91
2022-10-31T11:08:10.094Z,8.99
2022-10-31T11:10:38.514Z,8.77
2022-10-31T11:13:14.816Z,8.72
2022-10-31T11:16:27.223Z,8.70
2022-10-31T11:19:17.693Z,8.55
2022-10-31T11:21:51.222Z,8.41
2022-10-31T11:24:27.292Z,8.23
2022-10-31T11:27:30.806Z,8.03
2022-10-31T11:30:06.942Z,8.23
2022-10-31T11:32:35.197Z,8.48
2022-10-31T11:35:10.898Z,8.61
2022-10-31T11:37:44.288Z,8.61
2022-10-31T11:40:38.314Z,8.61
2022-10-31T11:43:06.421Z,8.61
2022-10-31T11:45:35.273Z,8.65
2022-10-31T11:48:04.501Z,8.74
2022-10-31T11:50:38.274Z,8.77
2022-10-31T11:53:16.174Z,8.66
2022-10-31T11:55:44.386Z,8.53
2022-10-31T11:58:26.460Z,8.47
2022-10-31T12:00:57.404Z,8.35
2022-10-31T12:03:25.288Z,8.42
2022-10-31T12:06:20.716Z,8.48
2022-10-31T12:08:49.475Z,8.60
2022-10-31T12:11:44.135Z,8.63
2022-10-31T12:14:23.553Z,8.49
2022-10-31T12:16:57.284Z,8.41
2022-10-31T12:19:37.331Z,8.46
2022-10-31T12:22:26.577Z,8.48
2022-10-31T12:25:26.248Z,8.64
2022-10-31T12:28:06.317Z,8.64
2022-10-31T12:31:05.869Z,8.53
2022-10-31T12:33:56.826Z,8.55
2022-10-31T12:37:11.874Z,8.74
2022-10-31T12:39:56.385Z,8.76
2022-10-31T12:42:39.678Z,8.78
2022-10-31T12:45:23.325Z,8.73
2022-10-31T12:47:59.860Z,8.74
2022-10-31T12:50:44.498Z,8.71
2022-10-31T12:53:29.207Z,8.63
2022-10-31T12:56:13.463Z,8.57
2022-10-31T12:59:15.668Z,8.67
2022-10-31T13:02:10.625Z,8.81
2022-10-31T13:04:50.646Z,8.84
2022-10-31T13:07:36.228Z,8.79
2022-10-31T13:10:16.572Z,8.77
2022-10-31T13:12:49.215Z,8.63
2022-10-31T13:15:24.266Z,8.62
2022-10-31T13:18:15.739Z,8.61
2022-10-31T13:20:53.099Z,8.64
2022-10-31T13:23:51.303Z,8.56
2022-10-31T13:26:34.273Z,8.50
2022-10-31T13:29:51.060Z,8.55
2022-10-31T13:32:19.905Z,8.55
2022-10-31T13:34:54.221Z,8.54
2022-10-31T13:37:47.160Z,8.56
2022-10-31T13:40:37.113Z,8.50
2022-10-31T13:43:13.390Z,8.46
2022-10-31T13:45:54.115Z,8.49
2022-10-31T13:48:28.284Z,8.40
2022-10-31T13:50:58.366Z,8.39
2022-10-31T13:53:41.432Z,8.41
2022-10-31T13:56:08.940Z,8.31
2022-10-31T13:58:37.765Z,8.29
2022-10-31T14:01:11.674Z,8.31
2022-10-31T14:06:38.786Z,8.23
2022-10-31T14:09:19.054Z,8.21
2022-10-31T14:11:50.728Z,8.17
2022-10-31T14:14:20.471Z,8.12
2022-10-31T14:16:57.386Z,8.14
2022-10-31T14:19:27.194Z,8.09
2022-10-31T14:21:55.159Z,8.05
2022-10-31T14:24:25.910Z,7.97
2022-10-31T14:27:03.436Z,7.91
2022-10-31T14:29:34.713Z,7.96
2022-10-31T14:32:19.321Z,7.87
2022-10-31T14:34:50.697Z,7.85
2022-10-31T14:37:36.823Z,7.84
2022-10-31T14:40:09.462Z,7.83
2022-10-31T14:42:52.325Z,7.81
2022-10-31T14:45:44.439Z,7.82
2022-10-31T14:48:33.011Z,7.73
2022-10-31T14:51:15.425Z,7.74
2022-10-31T14:53:51.883Z,7.75
2022-10-31T14:56:26.058Z,7.66
2022-10-31T14:58:56.490Z,7.60
2022-10-31T15:01:38.118Z,7.61
2022-10-31T15:04:29.717Z,7.60
2022-10-31T15:07:18.159Z,7.53
2022-10-31T15:10:21.057Z,7.47
2022-10-31T15:12:48.705Z,7.42
2022-10-31T15:15:23.232Z,7.43
2022-10-31T15:17:59.696Z,7.39
2022-10-31T15:20:31.274Z,7.38
2022-10-31T15:23:00.661Z,7.33
2022-10-31T15:25:34.449Z,7.34
2022-10-31T15:28:13.737Z,7.33
2022-10-31T15:30:41.288Z,7.31
2022-10-31T15:33:22.224Z,7.30
2022-10-31T15:35:58.106Z,7.23
2022-10-31T15:38:27.275Z,7.21
2022-10-31T15:40:59.706Z,7.18
2022-10-31T15:43:33.069Z,7.14
2022-10-31T15:46:01.696Z,7.13
2022-10-31T15:48:32.934Z,7.13
2022-10-31T15:51:00.561Z,7.10
2022-10-31T15:53:37.601Z,7.10
2022-10-31T15:56:08.778Z,7.08
2022-10-31T15:58:45.007Z,7.08
2022-10-31T16:01:42.340Z,7.01
2022-10-31T16:04:12.918Z,6.97
2022-10-31T16:06:41.927Z,6.91
2022-10-31T16:09:23.625Z,6.82
2022-10-31T16:11:52.010Z,6.80
2022-10-31T16:14:26.992Z,6.84
2022-10-31T16:16:57.865Z,6.78
2022-10-31T16:19:47.151Z,6.75
2022-10-31T16:22:25.026Z,6.71
2022-10-31T16:25:21.095Z,6.67
2022-10-31T16:28:00.413Z,6.67
2022-10-31T16:30:48.185Z,6.65
2022-10-31T16:33:28.908Z,6.61
2022-10-31T16:36:09.466Z,6.63
2022-10-31T16:38:43.670Z,6.62
2022-10-31T16:41:11.209Z,6.63
2022-10-31T16:43:39.206Z,6.61
2022-10-31T16:46:06.749Z,6.60
2022-10-31T16:48:34.440Z,6.56
2022-10-31T16:51:03.760Z,6.54
2022-10-31T16:53:32.804Z,6.51
2022-10-31T16:56:03.696Z,6.46
2022-10-31T16:58:34.197Z,6.47
2022-10-31T17:01:07.149Z,6.35
2022-10-31T17:03:35.179Z,6.34
2022-10-31T17:06:02.767Z,6.33
2022-10-31T17:08:31.014Z,6.27
2022-10-31T17:10:59.748Z,6.27
2022-10-31T17:13:32.172Z,6.29
2022-10-31T17:16:01.881Z,6.26
2022-10-31T17:18:30.995Z,6.30
2022-10-31T17:21:01.151Z,6.30
2022-10-31T17:23:33.413Z,6.21
2022-10-31T17:26:01.671Z,6.20
2022-10-31T17:28:29.339Z,6.21
2022-10-31T17:30:59.278Z,6.22
2022-10-31T17:33:27.212Z,6.22
2022-10-31T17:35:54.968Z,6.17
2022-10-31T17:38:22.933Z,6.17
2022-10-31T17:40:50.769Z,6.12
2022-10-31T17:43:19.585Z,6.12
2022-10-31T17:45:47.697Z,6.14
2022-10-31T17:48:15.354Z,6.05
2022-10-31T17:50:42.908Z,6.07
2022-10-31T17:53:10.478Z,6.06
2022-10-31T17:55:38.100Z,6.01
2022-10-31T17:58:06.144Z,6.00
2022-10-31T18:00:34.595Z,5.98
2022-10-31T18:03:04.513Z,6.03
2022-10-31T18:05:34.806Z,6.00
2022-10-31T18:08:04.156Z,6.00
2022-10-31T18:10:32.421Z,5.97
2022-10-31T18:13:01.275Z,5.94
2022-10-31T18:15:29.368Z,5.85
2022-10-31T18:17:56.940Z,5.83
2022-10-31T18:20:24.556Z,5.79
2022-10-31T18:22:54.479Z,5.72
2022-10-31T18:25:22.109Z,5.65
2022-10-31T18:27:49.895Z,5.61
2022-10-31T18:30:18.845Z,5.66
2022-10-31T18:32:50.766Z,5.65
2022-10-31T18:35:18.799Z,5.61
2022-10-31T18:37:47.058Z,5.55
2022-10-31T18:40:15.399Z,5.52
2022-10-31T18:42:43.357Z,5.49
2022-10-31T18:45:23.957Z,5.51
2022-10-31T18:48:00.923Z,5.48
2022-10-31T18:50:29.207Z,5.50
2022-10-31T18:52:56.795Z,5.52
2022-10-31T18:55:30.036Z,5.48
2022-10-31T18:57:58.162Z,5.51
2022-10-31T19:00:25.908Z,5.54
2022-10-31T19:02:56.357Z,5.48
2022-10-31T19:05:24.589Z,5.54
2022-10-31T19:07:52.274Z,5.44
2022-10-31T19:10:19.788Z,5.49
2022-10-31T19:12:51.858Z,5.39
2022-10-31T19:15:19.598Z,5.33
2022-10-31T19:17:50.443Z,5.29
2022-10-31T19:20:20.282Z,5.35
2022-10-31T19:22:49.764Z,5.27
2022-10-31T19:25:18.261Z,5.29
2022-10-31T19:27:45.830Z,5.21
2022-10-31T19:30:14.149Z,5.15
2022-10-31T19:32:42.002Z,5.18
2022-10-31T19:35:11.601Z,5.21
2022-10-31T19:37:40.868Z,5.24
2022-10-31T19:40:09.670Z,5.23
2022-10-31T19:42:37.880Z,5.20
2022-10-31T19:45:05.836Z,5.24
2022-10-31T19:47:33.703Z,5.24
2022-10-31T19:50:01.753Z,5.21
2022-10-31T19:52:29.947Z,5.20
2022-10-31T19:54:57.464Z,5.14
2022-10-31T19:57:48.930Z,5.08
2022-10-31T20:00:16.253Z,5.09
2022-10-31T20:02:43.853Z,5.10
2022-10-31T20:05:12.082Z,5.07
2022-10-31T20:07:40.211Z,5.05
2022-10-31T20:10:09.138Z,5.08
2022-10-31T20:12:36.747Z,5.00
2022-10-31T20:15:05.911Z,5.03
2022-10-31T20:17:34.424Z,5.11
2022-10-31T20:20:08.691Z,5.18
2022-10-31T20:22:38.731Z,5.15
2022-10-31T20:25:07.079Z,5.06
2022-10-31T20:27:35.408Z,4.99
2022-10-31T20:30:03.765Z,4.99
2022-10-31T20:32:32.244Z,4.96
